Time;durP1;ratioP1;P1;durP2;ratioP2;P2;SDS_P1;SDS_P2;PMS_P1;PMS_P2;Temp;Humidity;BMP_temperature;BMP_pressure;BME280_temperature;BME280_humidity;BME280_pressure;Samples;Min_cycle;Max_cycle;Signal;HPM_P1;HPM_P2
2021/04/17 00:00:10;;;;;;;10.07;5.32;;;;;;;9.91;43.02;102666.03;4919377;28;124247;-74
2021/04/17 00:02:40;;;;;;;8.88;5.05;;;;;;;9.88;42.87;102660.78;4922756;28;124442;-74
2021/04/17 00:05:08;;;;;;;10.10;5.57;;;;;;;9.87;42.67;102664.34;4917369;28;114506;-73
2021/04/17 00:07:36;;;;;;;10.30;4.90;;;;;;;9.85;42.93;102660.81;4910039;28;114234;-74
2021/04/17 00:10:04;;;;;;;8.77;5.20;;;;;;;9.83;42.62;102657.31;4925634;28;123992;-73
2021/04/17 00:12:31;;;;;;;8.13;4.78;;;;;;;9.79;42.95;102660.88;4920041;28;124027;-72
2021/04/17 00:14:58;;;;;;;10.27;5.10;;;;;;;9.75;42.86;102665.34;4924239;28;114933;-74
2021/04/17 00:17:24;;;;;;;11.80;4.88;;;;;;;9.72;42.69;102659.22;4906960;28;115243;-74
2021/04/17 00:19:55;;;;;;;10.68;5.85;;;;;;;9.69;43.03;102659.25;4926045;28;123755;-74
2021/04/17 00:22:29;;;;;;;12.13;5.47;;;;;;;9.64;43.04;102666.38;4927678;28;124709;-74
2021/04/17 00:24:56;;;;;;;12.07;5.60;;;;;;;9.61;43.29;102661.13;4919842;28;114535;-74
2021/04/17 00:27:26;;;;;;;9.60;5.55;;;;;;;9.57;43.36;102664.69;4929169;28;114031;-73
2021/04/17 00:29:53;;;;;;;9.07;5.05;;;;;;;9.52;43.05;102657.69;4924438;28;124397;-74
2021/04/17 00:32:20;;;;;;;10.50;5.95;;;;;;;9.49;43.38;102657.75;4920580;28;124327;-74
2021/04/17 00:34:48;;;;;;;11.15;5.18;;;;;;;9.46;43.62;102651.59;4924664;28;114188;-74
2021/04/17 00:37:14;;;;;;;9.90;5.53;;;;;;;9.43;43.88;102649.84;4926206;28;113944;-74
2021/04/17 00:39:42;;;;;;;8.90;5.68;;;;;;;9.39;43.83;102656.06;4905451;28;124744;-74
2021/04/17 00:42:09;;;;;;;12.82;5.93;;;;;;;9.37;43.42;102647.28;4925716;28;123859;-73
2021/04/17 00:44:37;;;;;;;9.45;5.15;;;;;;;9.33;43.75;102650.84;4901056;28;113773;-74
2021/04/17 00:47:06;;;;;;;9.73;5.40;;;;;;;9.32;43.98;102654.38;4924922;28;113349;-74
2021/04/17 00:49:49;;;;;;;8.65;5.22;;;;;;;9.29;43.97;102649.13;4923374;28;123930;-74
2021/04/17 00:52:18;;;;;;;10.82;5.70;;;;;;;9.26;43.52;102643.88;4931207;28;124279;-74
2021/04/17 00:54:48;;;;;;;10.23;5.53;;;;;;;9.23;43.61;102643.88;4923328;28;114607;-74
2021/04/17 00:57:15;;;;;;;10.23;5.72;;;;;;;9.19;43.95;102648.34;4932722;28;113732;-74
2021/04/17 00:59:42;;;;;;;9.73;5.38;;;;;;;9.14;44.09;102640.47;4921070;28;124350;-74
2021/04/17 01:02:12;;;;;;;13.77;5.97;;;;;;;9.11;43.90;102639.63;4908067;28;123650;-74
2021/04/17 01:04:46;;;;;;;11.43;5.75;;;;;;;9.07;44.10;102643.19;4922916;28;115338;-74
2021/04/17 01:07:21;;;;;;;11.23;6.00;;;;;;;9.04;44.13;102644.09;4910524;28;115231;-75
2021/04/17 01:10:16;;;;;;;8.13;5.45;;;;;;;9.01;43.68;102649.41;4925989;28;123604;-75
2021/04/17 01:12:46;;;;;;;12.30;6.03;;;;;;;8.99;43.86;102640.63;4907422;28;124272;-74
2021/04/17 01:15:15;;;;;;;11.20;5.50;;;;;;;8.96;44.04;102648.56;4906110;28;114630;-74
2021/04/17 01:17:48;;;;;;;9.85;5.40;;;;;;;8.94;44.08;102647.69;4924987;28;114458;-74
2021/04/17 01:20:18;;;;;;;9.82;5.85;;;;;;;8.91;44.43;102642.44;4919239;28;124864;-74
2021/04/17 01:23:27;;;;;;;11.38;5.90;;;;;;;8.88;44.13;102642.47;4919213;28;122397;-74
2021/04/17 01:26:00;;;;;;;10.45;5.20;;;;;;;8.84;43.97;102635.47;4916796;28;113762;-74
2021/04/17 01:28:32;;;;;;;10.75;5.70;;;;;;;8.80;44.40;102631.09;4926178;28;114440;-74
2021/04/17 01:31:02;;;;;;;10.10;5.97;;;;;;;8.76;44.34;102633.78;4921749;28;124028;-74
2021/04/17 01:33:32;;;;;;;10.68;5.90;;;;;;;8.74;44.58;102630.28;4919027;28;124731;-74
2021/04/17 01:36:03;;;;;;;9.75;5.55;;;;;;;8.70;44.45;102628.56;4924348;28;113905;-74
2021/04/17 01:38:40;;;;;;;11.10;6.18;;;;;;;8.67;44.95;102628.56;4924980;28;113367;-74
2021/04/17 01:41:28;;;;;;;9.70;5.50;;;;;;;8.64;44.85;102633.88;4894738;28;123518;-73
2021/04/17 01:43:57;;;;;;;10.23;5.60;;;;;;;8.62;44.71;102630.34;4905021;28;123663;-73
2021/04/17 01:46:33;;;;;;;11.40;5.55;;;;;;;8.59;44.70;102630.41;4912991;28;114065;-73
2021/04/17 01:49:03;;;;;;;9.18;5.22;;;;;;;8.58;44.80;102628.63;4915079;28;114269;-74
2021/04/17 01:51:32;;;;;;;10.18;5.53;;;;;;;8.55;44.92;102633.94;4926978;28;124128;-73
2021/04/17 01:54:07;;;;;;;10.00;5.63;;;;;;;8.53;44.53;102630.44;4927826;28;124360;-74
2021/04/17 01:56:36;;;;;;;9.35;5.45;;;;;;;8.51;44.54;102629.56;4921755;28;114945;-74
2021/04/17 01:59:04;;;;;;;10.13;5.40;;;;;;;8.48;44.69;102637.53;4919702;28;115282;-74
2021/04/17 02:01:31;;;;;;;10.18;5.57;;;;;;;8.46;44.89;102634.03;4898909;28;124841;-74
2021/04/17 02:04:07;;;;;;;9.82;5.43;;;;;;;8.38;44.91;102627.00;4913118;28;124068;-74
2021/04/17 02:06:34;;;;;;;12.57;5.40;;;;;;;8.35;44.77;102627.00;4920779;28;114268;-74
2021/04/17 02:09:03;;;;;;;12.00;5.18;;;;;;;8.31;45.11;102625.28;4914374;28;113644;-74
2021/04/17 02:11:32;;;;;;;9.82;4.93;;;;;;;8.30;45.47;102627.94;4925250;28;124240;-74
2021/04/17 02:14:00;;;;;;;9.50;5.55;;;;;;;8.27;45.31;102623.56;4921226;28;123924;-74
2021/04/17 02:16:47;;;;;;;9.98;5.70;;;;;;;8.25;45.55;102627.97;4923986;28;115102;-74
2021/04/17 02:19:29;;;;;;;9.43;5.03;;;;;;;8.24;45.55;102627.97;4923055;28;113802;-74
2021/04/17 02:21:57;;;;;;;13.55;5.18;;;;;;;8.22;45.13;102624.47;4917336;28;124011;-75
2021/04/17 02:24:28;;;;;;;10.73;5.93;;;;;;;8.19;45.42;102620.06;4918762;28;124330;-74
2021/04/17 02:26:55;;;;;;;12.38;5.32;;;;;;;8.17;45.41;102627.13;4921299;28;113775;-75
2021/04/17 02:29:23;;;;;;;9.98;5.32;;;;;;;8.14;45.70;102616.63;4919709;28;114556;-75
2021/04/17 02:31:51;;;;;;;9.15;5.40;;;;;;;8.13;45.63;102620.13;4920663;28;123500;-75
2021/04/17 02:34:22;;;;;;;10.27;5.22;;;;;;;8.13;45.65;102614.84;4922067;28;123838;-75
2021/04/17 02:36:48;;;;;;;10.90;5.10;;;;;;;8.13;45.69;102614.84;4915905;28;114618;-74
2021/04/17 02:39:16;;;;;;;10.15;5.85;;;;;;;8.12;45.60;102618.38;4920874;28;113996;-74
2021/04/17 02:41:43;;;;;;;9.05;5.40;;;;;;;8.11;45.76;102616.63;4924837;22;123220;-68
2021/04/17 02:44:09;;;;;;;11.50;5.68;;;;;;;8.10;45.57;102615.75;4909809;28;123905;-68
2021/04/17 02:46:36;;;;;;;10.52;5.47;;;;;;;8.09;45.43;102618.41;4909726;28;114921;-68
2021/04/17 02:49:03;;;;;;;11.30;5.38;;;;;;;8.08;45.37;102614.00;4909755;28;115347;-69
2021/04/17 02:51:30;;;;;;;9.55;5.30;;;;;;;8.07;45.29;102622.81;4895205;28;123434;-69
2021/04/17 02:53:56;;;;;;;9.88;5.68;;;;;;;8.05;45.42;102621.94;4911412;28;123697;-68
2021/04/17 02:56:23;;;;;;;9.68;5.32;;;;;;;8.04;45.53;102620.19;4911458;28;114524;-69
2021/04/17 02:58:49;;;;;;;11.30;5.78;;;;;;;8.01;45.41;102614.94;4911063;28;114022;-69
2021/04/17 03:01:16;;;;;;;9.93;5.25;;;;;;;7.97;45.42;102622.84;4909411;28;124996;-69
2021/04/17 03:03:43;;;;;;;8.68;4.90;;;;;;;7.94;45.26;102624.63;4910825;28;124117;-69
2021/04/17 03:06:10;;;;;;;9.23;5.15;;;;;;;7.89;45.36;102627.31;4910797;28;114326;-68
2021/04/17 03:08:36;;;;;;;11.13;5.22;;;;;;;7.86;45.49;102627.31;4914870;28;113830;-69
2021/04/17 03:11:03;;;;;;;8.48;5.07;;;;;;;7.84;45.41;102623.81;4912699;28;123984;-69
2021/04/17 03:13:30;;;;;;;9.45;4.70;;;;;;;7.81;45.50;102629.09;4912923;28;124187;-70
2021/04/17 03:15:57;;;;;;;9.73;5.45;;;;;;;7.76;45.35;102625.59;4916745;28;113989;-69
2021/04/17 03:18:24;;;;;;;10.57;5.40;;;;;;;7.74;45.51;102627.34;4913209;28;114816;-68
2021/04/17 03:20:51;;;;;;;12.13;5.25;;;;;;;7.70;45.73;102622.97;4913926;28;124930;-68
2021/04/17 03:23:18;;;;;;;10.15;5.22;;;;;;;7.68;45.60;102622.13;4912876;28;124064;-69
2021/04/17 03:25:44;;;;;;;10.13;5.00;;;;;;;7.64;45.29;102625.66;4897205;28;113721;-68
2021/04/17 03:28:11;;;;;;;10.38;5.65;;;;;;;7.58;45.85;102616.88;4912260;28;113843;-69
2021/04/17 03:30:38;;;;;;;11.75;5.70;;;;;;;7.54;45.67;102615.13;4912561;28;124004;-69
2021/04/17 03:33:05;;;;;;;8.07;5.15;;;;;;;7.49;45.80;102622.19;4909714;28;124711;-68
2021/04/17 03:35:32;;;;;;;11.95;5.63;;;;;;;7.44;45.79;102613.44;4912306;28;115368;-68
2021/04/17 03:38:00;;;;;;;12.63;5.80;;;;;;;7.39;45.85;102620.47;4911909;28;115106;-68
2021/04/17 03:40:29;;;;;;;12.80;5.47;;;;;;;7.37;46.20;102623.09;4897519;28;124057;-68
2021/04/17 03:42:56;;;;;;;11.00;5.63;;;;;;;7.36;46.55;102625.75;4913596;28;123775;-68
2021/04/17 03:45:23;;;;;;;9.07;5.30;;;;;;;7.33;46.34;102625.78;4910852;28;114470;-68
2021/04/17 03:47:50;;;;;;;14.65;5.47;;;;;;;7.30;46.61;102615.22;4910647;28;113748;-68
2021/04/17 03:50:17;;;;;;;11.35;5.32;;;;;;;7.28;46.53;102623.13;4914334;28;124199;-67
2021/04/17 03:52:44;;;;;;;9.35;5.05;;;;;;;7.29;46.64;102629.25;4911860;28;124294;-68
2021/04/17 03:55:14;;;;;;;10.25;5.10;;;;;;;7.27;46.66;102631.03;4912860;28;114290;-68
2021/04/17 03:57:43;;;;;;;8.70;5.05;;;;;;;7.26;46.87;102624.03;4914974;28;114729;-67
2021/04/17 04:00:13;;;;;;;10.30;5.30;;;;;;;7.25;46.82;102628.41;4905989;28;124166;-69
2021/04/17 04:02:40;;;;;;;11.73;4.95;;;;;;;7.24;47.02;102626.66;4911334;28;124543;-68
2021/04/17 04:05:07;;;;;;;14.27;4.80;;;;;;;7.24;47.06;102636.34;4912641;28;114137;-68
2021/04/17 04:07:34;;;;;;;13.95;4.95;;;;;;;7.21;46.89;102635.47;4914748;28;114457;-67
2021/04/17 04:10:00;;;;;;;12.00;5.70;;;;;;;7.20;46.93;102635.47;4895679;28;123297;-68
2021/04/17 04:12:27;;;;;;;11.50;5.25;;;;;;;7.19;46.85;102642.47;4912711;28;123856;-68
2021/04/17 04:14:54;;;;;;;10.90;5.03;;;;;;;7.16;47.12;102644.25;4898429;28;113648;-68
2021/04/17 04:17:20;;;;;;;14.65;5.28;;;;;;;7.13;47.20;102639.84;4914634;28;113956;-68
2021/04/17 04:19:47;;;;;;;10.63;4.97;;;;;;;7.12;47.13;102643.38;4912166;28;123271;-68
2021/04/17 04:22:14;;;;;;;12.55;4.88;;;;;;;7.10;47.16;102634.59;4911869;28;124313;-68
2021/04/17 04:24:40;;;;;;;10.90;5.57;;;;;;;7.10;47.29;102639.88;4915311;28;114939;-68
2021/04/17 04:27:07;;;;;;;10.98;5.15;;;;;;;7.11;47.04;102641.59;4913884;28;114359;-68
2021/04/17 04:29:34;;;;;;;10.25;4.85;;;;;;;7.11;47.09;102641.59;4911328;28;124246;-68
2021/04/17 04:32:01;;;;;;;9.15;5.43;;;;;;;7.09;47.29;102638.09;4910994;28;124057;-68
2021/04/17 04:34:27;;;;;;;12.60;5.45;;;;;;;7.07;47.13;102634.59;4900321;28;114618;-68
2021/04/17 04:36:54;;;;;;;12.27;5.30;;;;;;;7.05;47.13;102641.63;4913291;28;114025;-68
2021/04/17 04:39:21;;;;;;;10.88;6.18;;;;;;;7.02;47.27;102647.75;4910604;28;124009;-68
2021/04/17 04:44:15;;;;;;;10.35;5.85;;;;;;;6.98;47.22;102647.78;4854312;28;113584;-70
2021/04/17 04:46:42;;;;;;;15.18;6.03;;;;;;;6.96;47.69;102652.16;4860010;28;113400;-70
2021/04/17 04:49:09;;;;;;;15.40;5.97;;;;;;;6.94;47.62;102653.94;4874055;28;124112;-70
2021/04/17 04:51:36;;;;;;;11.85;6.05;;;;;;;6.93;47.88;102646.91;4862131;28;124024;-70
2021/04/17 04:54:03;;;;;;;11.23;5.30;;;;;;;6.93;47.61;102649.53;4850921;28;113494;-70
2021/04/17 04:56:29;;;;;;;14.10;5.78;;;;;;;6.93;47.89;102657.44;4840693;29;113371;-70
2021/04/17 04:58:56;;;;;;;9.25;5.00;;;;;;;6.93;48.10;102657.44;4839928;29;124382;-70
2021/04/17 05:01:22;;;;;;;10.07;5.72;;;;;;;6.92;47.98;102656.56;4853517;29;123877;-75
2021/04/17 05:03:50;;;;;;;10.73;5.28;;;;;;;6.90;48.12;102657.44;4855471;28;113419;-70
2021/04/17 05:06:17;;;;;;;9.38;5.28;;;;;;;6.86;47.92;102650.44;4839079;28;113889;-72
2021/04/17 05:08:44;;;;;;;8.82;5.20;;;;;;;6.85;48.26;102652.16;4852233;28;125254;-78
2021/04/17 05:11:10;;;;;;;11.60;5.43;;;;;;;6.83;48.56;102646.91;4846432;28;123839;-70
2021/04/17 05:13:37;;;;;;;10.20;5.13;;;;;;;6.85;48.29;102648.66;4837288;28;113519;-70
2021/04/17 05:16:04;;;;;;;11.88;5.25;;;;;;;6.87;48.54;102657.44;4847137;28;114644;-70
2021/04/17 05:18:31;;;;;;;11.98;5.70;;;;;;;6.87;48.45;102652.16;4840472;28;123829;-70
2021/04/17 05:20:58;;;;;;;14.52;5.70;;;;;;;6.88;48.66;102653.94;4839497;28;124230;-70
2021/04/17 05:23:24;;;;;;;10.30;4.82;;;;;;;6.89;48.52;102650.41;4841940;28;114312;-70
2021/04/17 05:25:51;;;;;;;12.57;5.43;;;;;;;6.90;48.65;102652.19;4845395;28;113787;-70
2021/04/17 05:28:18;;;;;;;11.80;5.43;;;;;;;6.90;48.67;102652.19;4844461;28;124188;-70
2021/04/17 05:30:44;;;;;;;10.60;5.82;;;;;;;6.91;49.09;102648.66;4853497;28;123886;-70
2021/04/17 05:33:11;;;;;;;12.32;6.50;;;;;;;6.93;49.12;102657.44;4846912;28;114277;-70
2021/04/17 05:35:38;;;;;;;9.15;5.63;;;;;;;6.95;49.40;102655.66;4846041;28;114290;-74
2021/04/17 05:38:04;;;;;;;12.80;6.13;;;;;;;6.95;49.32;102651.31;4846195;28;123803;-70
2021/04/17 05:40:31;;;;;;;10.68;6.25;;;;;;;6.94;49.42;102653.94;4845367;28;123034;-70
2021/04/17 05:42:58;;;;;;;11.45;6.32;;;;;;;6.93;49.64;102652.16;4829602;29;114823;-70
2021/04/17 05:45:24;;;;;;;13.13;6.50;;;;;;;6.95;49.55;102655.66;4848396;28;114416;-70
2021/04/17 05:47:51;;;;;;;12.30;6.43;;;;;;;6.97;50.02;102651.31;4831025;29;124007;-72
2021/04/17 05:50:17;;;;;;;11.98;6.43;;;;;;;6.98;49.97;102661.81;4847399;28;125342;-70
2021/04/17 05:52:44;;;;;;;10.57;6.18;;;;;;;7.02;50.14;102652.16;4842492;28;113141;-70
2021/04/17 05:55:12;;;;;;;11.15;6.43;;;;;;;7.04;50.26;102653.03;4854073;28;113502;-71
2021/04/17 05:57:39;;;;;;;16.20;6.70;;;;;;;7.07;50.38;102644.25;4851989;28;124197;-70
2021/04/17 06:00:06;;;;;;;13.95;6.38;;;;;;;7.11;50.88;102646.88;4842745;28;123848;-70
2021/04/17 06:02:33;;;;;;;10.85;6.22;;;;;;;7.18;50.36;102653.03;4843531;28;116128;-71
2021/04/17 06:05:00;;;;;;;11.93;5.97;;;;;;;7.24;50.95;102641.59;4848064;28;114717;-71
2021/04/17 06:07:27;;;;;;;14.27;6.40;;;;;;;7.32;51.00;102645.09;4849799;28;122647;-70
2021/04/17 06:09:53;;;;;;;15.25;6.60;;;;;;;7.40;50.84;102648.56;4852718;28;123347;-70
2021/04/17 06:12:20;;;;;;;15.63;6.72;;;;;;;7.50;50.84;102652.09;4853711;28;113700;-70
2021/04/17 06:14:46;;;;;;;13.45;6.63;;;;;;;7.58;51.30;102647.66;4836549;28;111909;-70
2021/04/17 06:17:13;;;;;;;16.00;6.50;;;;;;;7.69;51.31;102650.25;4835774;29;123357;-71
2021/04/17 06:19:40;;;;;;;12.73;7.05;;;;;;;7.79;51.56;102654.59;4840050;28;124314;-72
2021/04/17 06:22:07;;;;;;;14.05;6.53;;;;;;;7.87;51.75;102650.16;4829698;28;113402;-72
2021/04/17 06:24:33;;;;;;;15.60;6.80;;;;;;;7.97;51.61;102654.50;4841904;28;113989;-71
2021/04/17 06:27:00;;;;;;;11.40;6.50;;;;;;;8.08;51.67;102658.84;4849163;28;123921;-72
2021/04/17 06:29:27;;;;;;;12.38;6.78;;;;;;;8.18;51.90;102656.16;4852638;28;123991;-72
2021/04/17 06:31:53;;;;;;;18.85;6.30;;;;;;;8.29;52.14;102653.47;4854227;28;114229;-71
2021/04/17 06:34:20;;;;;;;15.60;6.03;;;;;;;8.42;52.27;102656.03;4861495;28;114403;-72
2021/04/17 06:36:46;;;;;;;13.75;6.00;;;;;;;8.57;52.13;102653.31;4841202;28;123184;-72
2021/04/17 06:39:13;;;;;;;12.85;6.53;;;;;;;8.71;52.18;102654.06;4859228;28;124427;-72
2021/04/17 06:41:43;;;;;;;12.82;5.93;;;;;;;8.84;52.25;102651.34;4856992;28;115361;-71
2021/04/17 06:44:14;;;;;;;14.68;6.13;;;;;;;8.99;51.74;102656.47;4868753;28;114119;-71
2021/04/17 06:46:41;;;;;;;13.65;5.68;;;;;;;9.14;51.70;102656.31;4856738;28;124676;-70
2021/04/17 06:49:09;;;;;;;9.60;5.30;;;;;;;9.34;51.72;102652.59;4843162;28;123853;-71
2021/04/17 06:51:38;;;;;;;11.20;5.18;;;;;;;9.52;51.61;102657.69;4858887;28;115056;-71
2021/04/17 06:54:06;;;;;;;12.98;5.25;;;;;;;9.73;51.51;102650.38;4860629;28;114793;-70
2021/04/17 06:56:32;;;;;;;10.95;5.32;;;;;;;9.94;51.49;102650.13;4858148;28;122540;-70
2021/04/17 06:58:59;;;;;;;9.48;5.20;;;;;;;10.14;51.10;102656.91;4864226;28;124105;-70
2021/04/17 07:01:26;;;;;;;10.10;5.03;;;;;;;10.32;50.70;102650.50;4865944;28;114936;-70
2021/04/17 07:03:52;;;;;;;10.30;5.07;;;;;;;10.46;50.21;102652.94;4857878;28;114122;-70
2021/04/17 07:06:19;;;;;;;9.20;4.43;;;;;;;10.61;50.38;102646.53;4858170;28;123980;-70
2021/04/17 07:08:46;;;;;;;11.85;4.22;;;;;;;10.75;49.84;102639.22;4858114;28;124376;-70
2021/04/17 07:11:12;;;;;;;8.90;4.30;;;;;;;10.91;49.66;102640.72;4857924;28;114312;-70
2021/04/17 07:14:05;;;;;;;10.27;4.75;;;;;;;11.03;49.14;102636.94;4850374;28;114032;-70
2021/04/17 07:16:32;;;;;;;12.63;4.40;;;;;;;11.22;49.42;102642.78;4853840;28;124289;-70
2021/04/17 07:18:59;;;;;;;7.72;3.92;;;;;;;11.37;49.49;102641.63;4857438;28;126320;-70
2021/04/17 07:21:28;;;;;;;10.75;4.05;;;;;;;11.55;49.22;102645.72;4856392;28;114059;-70
2021/04/17 07:23:56;;;;;;;9.27;4.30;;;;;;;11.69;48.32;102642.75;4849992;28;113518;-70
2021/04/17 07:26:25;;;;;;;10.57;4.03;;;;;;;11.79;48.50;102641.69;4829411;29;124621;-70
2021/04/17 07:29:00;;;;;;;8.85;4.22;;;;;;;11.92;48.07;102646.75;4855478;28;123788;-70
2021/04/17 07:31:28;;;;;;;9.20;3.80;;;;;;;12.06;47.85;102655.28;4846777;28;115052;-70
2021/04/17 07:33:56;;;;;;;11.48;3.63;;;;;;;12.16;47.28;102645.34;4835219;28;114391;-70
2021/04/17 07:36:49;;;;;;;6.32;3.90;;;;;;;12.24;46.92;102638.94;4851727;28;123857;-70
2021/04/17 07:39:27;;;;;;;6.05;3.30;;;;;;;12.33;46.59;102642.28;4833193;29;123929;-70
2021/04/17 07:42:02;;;;;;;7.20;3.20;;;;;;;12.41;46.60;102645.63;4850882;28;115503;-71
2021/04/17 07:44:31;;;;;;;10.20;3.43;;;;;;;12.53;46.78;102645.34;4843996;28;114214;-70
2021/04/17 07:46:57;;;;;;;8.68;3.83;;;;;;;12.63;46.23;102646.84;4858869;28;124037;-70
2021/04/17 07:49:26;;;;;;;10.18;3.55;;;;;;;12.71;46.01;102637.81;4859805;28;123994;-70
2021/04/17 07:52:00;;;;;;;10.45;3.88;;;;;;;12.77;45.64;102641.22;4847982;28;115069;-70
2021/04/17 07:54:28;;;;;;;14.05;3.72;;;;;;;12.86;45.48;102640.09;4847632;29;113495;-71
2021/04/17 07:56:55;;;;;;;9.45;3.75;;;;;;;12.94;45.39;102646.09;4846585;28;124003;-70
2021/04/17 07:59:24;;;;;;;9.55;3.20;;;;;;;13.03;45.13;102635.22;4846948;28;124080;-70
2021/04/17 08:01:52;;;;;;;10.48;3.40;;;;;;;13.13;45.05;102642.94;4843602;28;114445;-69
2021/04/17 08:04:28;;;;;;;9.75;3.25;;;;;;;13.19;44.52;102634.81;4837288;28;112466;-69
2021/04/17 08:06:56;;;;;;;9.87;3.23;;;;;;;13.24;44.27;102638.19;4842443;28;124783;-69
2021/04/17 08:09:25;;;;;;;10.75;3.22;;;;;;;13.29;44.16;102630.97;4836840;28;122963;-69
2021/04/17 08:11:56;;;;;;;9.13;3.35;;;;;;;13.34;43.53;102634.41;4843005;28;114138;-69
2021/04/17 08:14:24;;;;;;;9.10;3.50;;;;;;;13.41;44.51;102628.00;4843349;29;113484;-69
2021/04/17 08:16:52;;;;;;;9.77;4.00;;;;;;;13.53;44.88;102628.56;4848900;28;124066;-69
2021/04/17 08:19:20;;;;;;;9.02;3.80;;;;;;;13.62;45.01;102622.97;4846812;28;124082;-69
2021/04/17 08:21:48;;;;;;;6.80;3.65;;;;;;;13.70;44.69;102620.94;4839121;28;113293;-69
2021/04/17 08:24:21;;;;;;;7.63;3.60;;;;;;;13.80;43.97;102627.72;4848553;28;113973;-69
2021/04/17 08:26:51;;;;;;;13.27;3.78;;;;;;;13.88;44.25;102623.97;4846765;28;124833;-69
2021/04/17 08:29:44;;;;;;;7.03;3.47;;;;;;;13.92;44.34;102626.50;4839454;29;124228;-69
2021/04/17 08:32:47;;;;;;;8.90;3.20;;;;;;;14.00;44.42;102628.94;4844657;28;115515;-71
2021/04/17 08:35:17;;;;;;;7.97;3.00;;;;;;;14.08;43.91;102621.56;4841756;28;115021;-69
2021/04/17 08:37:50;;;;;;;7.50;3.15;;;;;;;14.15;43.85;102617.81;4846684;29;124113;-69
2021/04/17 08:40:35;;;;;;;7.68;2.90;;;;;;;14.21;44.18;102617.59;4844143;28;123866;-70
2021/04/17 08:43:18;;;;;;;10.68;3.45;;;;;;;14.29;43.29;102614.69;4852056;28;113626;-71
2021/04/17 08:46:14;;;;;;;7.63;3.08;;;;;;;14.35;42.92;102613.63;4915057;23;114250;-74
2021/04/17 08:48:55;;;;;;;7.85;2.40;;;;;;;14.38;42.68;102613.53;4936738;28;123878;-74
2021/04/17 08:51:22;;;;;;;9.00;3.20;;;;;;;14.43;42.07;102610.69;4915349;28;123357;-74
2021/04/17 08:53:50;;;;;;;9.57;3.13;;;;;;;14.45;41.72;102609.75;4933333;28;114639;-73
2021/04/17 08:56:17;;;;;;;4.85;2.60;;;;;;;14.49;41.10;102616.72;4943571;28;113995;-75
2021/04/17 08:59:09;;;;;;;8.65;2.47;;;;;;;14.52;41.05;102611.28;4942134;28;123099;-74
2021/04/17 09:01:40;;;;;;;6.13;2.78;;;;;;;14.57;41.67;102609.34;4929186;28;122767;-73
2021/04/17 09:04:09;;;;;;;7.32;3.63;;;;;;;14.66;40.58;102607.31;4950632;28;114240;-73
2021/04/17 09:06:48;;;;;;;6.90;2.65;;;;;;;14.69;40.91;102607.19;4924628;28;114239;-73
2021/04/17 09:09:21;;;;;;;4.90;2.63;;;;;;;14.74;40.81;102606.13;4937079;28;124335;-73
2021/04/17 09:12:15;;;;;;;4.97;2.67;;;;;;;14.84;40.76;102605.81;4926484;28;122916;-73
2021/04/17 09:14:41;;;;;;;6.63;3.05;;;;;;;14.91;40.71;102602.84;4930574;28;114294;-73
2021/04/17 09:17:38;;;;;;;5.30;2.92;;;;;;;14.95;40.83;102609.81;4940062;28;113802;-74
2021/04/17 09:20:11;;;;;;;7.43;3.15;;;;;;;15.04;41.27;102597.09;4937484;28;123970;-73
2021/04/17 09:22:38;;;;;;;5.50;2.88;;;;;;;15.13;40.93;102596.78;4934387;28;122810;-73
2021/04/17 09:25:07;;;;;;;5.80;2.65;;;;;;;15.23;40.77;102592.84;4924416;28;115478;-73
2021/04/17 09:27:45;;;;;;;6.70;2.67;;;;;;;15.30;39.85;102593.50;4924179;28;114077;-73
2021/04/17 09:30:19;;;;;;;6.22;2.97;;;;;;;15.37;39.94;102592.34;4919844;28;123542;-74
2021/04/17 09:32:57;;;;;;;5.88;2.80;;;;;;;15.44;39.74;102587.63;4911828;28;123357;-73
2021/04/17 09:35:36;;;;;;;6.72;2.60;;;;;;;15.47;38.70;102591.06;4934922;28;114182;-74
2021/04/17 09:38:15;;;;;;;5.85;2.80;;;;;;;15.51;38.57;102581.13;4933372;28;114102;-74
2021/04/17 09:40:52;;;;;;;4.88;2.28;;;;;;;15.56;37.87;102584.50;4923043;28;123720;-74
2021/04/17 09:43:28;;;;;;;5.25;2.33;;;;;;;15.61;38.15;102582.50;4950479;28;124149;-73
2021/04/17 09:45:57;;;;;;;6.05;2.30;;;;;;;15.67;38.25;102568.94;4925161;28;113352;-73
2021/04/17 09:48:25;;;;;;;5.65;2.33;;;;;;;15.76;37.88;102579.31;4944066;28;115607;-74
2021/04/17 09:50:57;;;;;;;5.72;2.60;;;;;;;15.82;36.72;102579.97;4946039;28;124078;-76
2021/04/17 09:53:30;;;;;;;5.07;2.33;;;;;;;15.81;37.16;102572.91;4937804;28;123708;-74
2021/04/17 09:56:12;;;;;;;5.78;2.20;;;;;;;15.82;36.92;102569.28;4939019;28;114795;-74
2021/04/17 09:58:44;;;;;;;5.00;2.40;;;;;;;15.87;36.45;102578.00;4924236;28;97211;-74
2021/04/17 10:01:15;;;;;;;5.40;2.55;;;;;;;15.89;36.53;102560.09;4935945;28;123849;-74
2021/04/17 10:03:44;;;;;;;6.35;2.63;;;;;;;15.93;36.23;102556.38;4942047;28;123654;-74
2021/04/17 10:06:29;;;;;;;6.40;2.08;;;;;;;15.98;37.03;102554.38;4926935;28;113397;-75
2021/04/17 10:09:10;;;;;;;6.25;2.55;;;;;;;16.07;37.13;102543.31;4946839;28;114096;-75
2021/04/17 10:11:42;;;;;;;6.15;2.83;;;;;;;16.19;37.06;102541.09;4950391;28;123944;-74
2021/04/17 10:14:13;;;;;;;9.50;2.50;;;;;;;16.28;36.91;102540.69;4926337;28;124085;-76
2021/04/17 10:16:45;;;;;;;7.35;2.38;;;;;;;16.34;36.46;102541.28;4916307;28;114280;-73
2021/04/17 10:19:14;;;;;;;5.30;2.40;;;;;;;16.38;36.35;102533.16;4935610;28;114040;-75
2021/04/17 10:21:45;;;;;;;4.53;2.10;;;;;;;16.41;36.22;102525.00;4934076;28;124605;-74
2021/04/17 10:24:20;;;;;;;7.18;2.20;;;;;;;16.43;34.93;102524.00;4952153;28;124576;-77
2021/04/17 10:27:01;;;;;;;6.78;2.40;;;;;;;16.46;35.66;102513.19;4936418;28;114138;-74
2021/04/17 10:29:41;;;;;;;4.43;2.28;;;;;;;16.49;35.63;102513.03;4939447;28;114198;-75
2021/04/17 10:32:16;;;;;;;5.25;2.55;;;;;;;16.45;33.43;102511.44;4919916;28;124054;-75
2021/04/17 10:34:46;;;;;;;6.75;2.25;;;;;;;16.44;33.91;102509.69;4925426;28;124781;-76
2021/04/17 10:37:16;;;;;;;3.70;2.30;;;;;;;16.48;34.28;102505.97;4929074;28;114109;-75
2021/04/17 10:40:19;;;;;;;4.53;2.30;;;;;;;16.49;33.63;102496.13;4941133;28;113621;-75
2021/04/17 10:43:00;;;;;;;6.20;2.90;;;;;;;16.51;33.38;102495.09;4903345;28;125029;-75
2021/04/17 10:45:29;;;;;;;5.00;2.33;;;;;;;16.48;33.78;102489.91;4920129;28;123906;-76
2021/04/17 10:48:15;;;;;;;3.90;2.17;;;;;;;16.43;34.39;102481.22;4929439;28;113890;-76
2021/04/17 10:50:53;;;;;;;4.35;2.60;;;;;;;16.42;33.88;102490.16;4918385;28;112725;-74
2021/04/17 10:53:46;;;;;;;8.18;2.67;;;;;;;16.45;33.14;102484.69;4933214;28;123808;-74
2021/04/17 10:56:18;;;;;;;7.28;2.53;;;;;;;16.49;32.58;102480.94;4948458;28;126057;-75
2021/04/17 10:58:47;;;;;;;11.77;2.50;;;;;;;16.53;33.09;102482.53;4944560;28;114532;-75
2021/04/17 11:01:23;;;;;;;4.60;2.35;;;;;;;16.59;33.01;102464.47;4913739;28;113509;-76
2021/04/17 11:03:52;;;;;;;7.20;2.90;;;;;;;16.68;32.50;102469.44;4939953;28;124087;-73
2021/04/17 11:06:23;;;;;;;5.47;2.75;;;;;;;16.73;32.13;102483.47;4935161;28;124141;-73
2021/04/17 11:09:04;;;;;;;5.40;2.53;;;;;;;16.72;31.01;102471.03;4937034;28;115738;-76
2021/04/17 11:11:31;;;;;;;3.92;2.45;;;;;;;16.76;31.08;102456.56;4928686;28;114367;-76
2021/04/17 11:14:01;;;;;;;5.80;2.60;;;;;;;16.79;31.61;102456.44;4942227;28;124350;-77
2021/04/17 11:16:45;;;;;;;4.28;2.60;;;;;;;16.86;31.44;102452.56;4917257;28;123082;-77
2021/04/17 11:19:24;;;;;;;7.03;2.25;;;;;;;16.98;31.68;102460.97;4937173;28;114416;-76
2021/04/17 11:22:16;;;;;;;5.18;3.13;;;;;;;17.05;31.50;102451.75;4917360;28;113330;-75
2021/04/17 11:25:04;;;;;;;5.40;2.97;;;;;;;17.11;32.24;102435.38;4951182;28;125063;-76
2021/04/17 11:27:32;;;;;;;4.45;2.80;;;;;;;17.20;32.44;102434.94;4936560;28;122901;-73
2021/04/17 11:30:01;;;;;;;6.60;2.80;;;;;;;17.28;31.69;102438.13;4928530;28;114032;-73
2021/04/17 11:32:28;;;;;;;6.25;2.65;;;;;;;17.34;31.12;102430.75;4919611;28;113527;-73
2021/04/17 11:34:55;;;;;;;6.22;2.70;;;;;;;17.38;30.84;102430.50;4909485;28;124230;-75